Narvik, Norway

12:12 PM CET on February 10, 2016 (GMT +0100)
Framnes | | Change Station
CLOSE
Current Station
Airport
Location: Narvik Iii,
Elevation: 102 ft
Nearby Weather Stations

Elev 102 ft 68.44 °N, 17.39 °E | Updated 22 minutes ago

Light Snow
Light Snow
30 °F
Feels Like 27 °F
N
4
Wind Variable Wind from ENE

Today
High -- | Low -- °F
--% Chance of Precip.
Yesterday
High -- | Low -- °F
Precip. -- in
Pressure 29.21 in
Visibility 6.2 miles
Clouds Few 100 ft
Scattered Clouds 3500 ft
Mostly Cloudy 5900 ft
Windchill 27 °F
Dew Point 28 °F
Humidity 93%
Rainfall 0.00 in
Snow Depth Not available.
8:35 AM 3:33 PM
Waxing Crescent, 5% visible
METAR ENNK 101050Z 06003KT 9999 -SN FEW001 SCT035 BKN059 M01/M02 Q0989
Pressure 29.21 in
Visibility 6.2 miles
Clouds Few 100 ft
Scattered Clouds 3500 ft
Mostly Cloudy 5900 ft
Windchill 27 °F
Dew Point 28 °F
Humidity 93%
Rainfall 0.00 in
Snow Depth Not available.
8:35 AM 3:33 PM
Waxing Crescent, 5% visible
METAR ENNK 101050Z 06003KT 9999 -SN FEW001 SCT035 BKN059 M01/M02 Q0989

10-Day Weather Forecast

Almanac

Astronomy

Feb. 10, 2016 Rise Set
Actual Time
Civil Twilight
Nautical Twilight
Astronomical Twilight
Moon
Length of Visible Light
Length of Day
Tomorrow will be .
, % of the Moon is Illuminated

Today's Extremes

Country Highs Country Lows

Community

WunderPhotos

Upload Photos

1,891,830 photos uploaded!

WunderBlog® & News

Nearby

Air Quality

  Air Quality AQ Index Pollutant
Not available.

Snow Depth

Station Depth Elevation

Earthquake Activity

City Distance Mag. Time & Date
Minimum magnitude displayed is 2.5.

Coastal Water Temperatures

Place Temperature

Stations

Nearby Weather Stations

Station Location Temp. Windchill Dew Point Humidity Wind Precip. Elev Updated Type